createdAt,value
2023-04-18T00:00:39.890Z,99.99
2023-04-18T00:01:39.881Z,99.99
2023-04-18T00:02:40.140Z,99.99
2023-04-18T00:03:40.118Z,99.99
2023-04-18T00:04:39.893Z,99.99
2023-04-18T00:05:39.823Z,99.99
2023-04-18T00:06:39.814Z,99.99
2023-04-18T00:07:39.802Z,99.99
2023-04-18T00:08:39.787Z,99.99
2023-04-18T00:09:39.796Z,99.99
2023-04-18T00:10:39.808Z,99.99
2023-04-18T00:11:39.759Z,99.99
2023-04-18T00:12:39.747Z,99.99
2023-04-18T00:13:39.735Z,99.99
2023-04-18T00:14:39.719Z,99.99
2023-04-18T00:15:39.714Z,99.99
2023-04-18T00:16:39.744Z,99.99
2023-04-18T00:17:39.767Z,99.99
2023-04-18T00:18:39.674Z,99.99
2023-04-18T00:19:39.668Z,99.99
2023-04-18T00:20:39.676Z,99.99
2023-04-18T00:21:39.644Z,99.99
2023-04-18T00:22:39.637Z,99.99
2023-04-18T00:23:39.636Z,99.99
2023-04-18T00:24:39.621Z,99.99
2023-04-18T00:25:39.612Z,99.99
2023-04-18T00:26:39.635Z,99.99
2023-04-18T00:27:39.580Z,99.99
2023-04-18T00:28:39.569Z,99.99
2023-04-18T00:29:39.579Z,99.99
2023-04-18T00:30:39.595Z,99.99
2023-04-18T00:31:39.534Z,99.99
2023-04-18T00:32:39.622Z,99.99
2023-04-18T00:33:39.554Z,99.99
2023-04-18T00:34:39.586Z,99.99
2023-04-18T00:35:39.615Z,99.99
2023-04-18T00:36:39.649Z,99.99
2023-04-18T00:37:39.593Z,99.99
2023-04-18T00:38:39.651Z,99.99
2023-04-18T00:39:39.637Z,99.99
2023-04-18T00:40:39.449Z,99.99
2023-04-18T00:41:39.427Z,99.99
2023-04-18T00:42:39.438Z,99.99
2023-04-18T00:43:39.407Z,99.99
2023-04-18T00:44:39.402Z,99.99
2023-04-18T00:45:39.382Z,99.99
2023-04-18T00:46:39.427Z,99.99
2023-04-18T00:47:39.408Z,99.99
2023-04-18T00:48:39.351Z,99.99
2023-04-18T00:49:39.338Z,99.99
2023-04-18T00:50:39.325Z,99.99
2023-04-18T00:51:39.318Z,99.99
2023-04-18T00:52:39.322Z,99.99
2023-04-18T00:53:39.299Z,99.99
2023-04-18T00:54:39.288Z,99.99
2023-04-18T00:55:39.271Z,99.99
2023-04-18T00:56:39.261Z,99.99
2023-04-18T00:57:39.249Z,99.99
2023-04-18T00:58:39.264Z,99.99
2023-04-18T00:59:39.233Z,99.99
2023-04-18T01:00:39.217Z,99.99
2023-04-18T01:01:39.307Z,99.99
2023-04-18T01:02:39.368Z,99.99
2023-04-18T01:03:39.323Z,99.99
2023-04-18T01:04:39.216Z,99.99
2023-04-18T01:05:39.162Z,99.99
2023-04-18T01:06:39.155Z,99.99
2023-04-18T01:07:39.141Z,99.99
2023-04-18T01:08:39.161Z,99.99
2023-04-18T01:09:39.123Z,99.99
2023-04-18T01:10:39.115Z,99.99
2023-04-18T01:11:39.108Z,99.99
2023-04-18T01:12:39.079Z,99.99
2023-04-18T01:13:39.078Z,99.99
2023-04-18T01:14:39.112Z,99.99
2023-04-18T01:15:39.176Z,99.99
2023-04-18T01:16:39.041Z,99.99
2023-04-18T01:17:39.067Z,99.99
2023-04-18T01:18:39.020Z,99.99
2023-04-18T01:19:39.012Z,99.99
2023-04-18T01:20:38.993Z,99.99
2023-04-18T01:21:38.985Z,99.99
2023-04-18T01:22:38.979Z,99.99
2023-04-18T01:23:38.970Z,99.99
2023-04-18T01:24:38.956Z,99.99
2023-04-18T01:25:38.943Z,99.99
2023-04-18T01:26:38.930Z,99.99
2023-04-18T01:27:38.925Z,99.99
2023-04-18T01:28:38.910Z,99.99
2023-04-18T01:29:39.108Z,99.99
2023-04-18T01:30:38.911Z,99.99
2023-04-18T01:31:39.121Z,99.99
2023-04-18T01:32:38.946Z,99.99
2023-04-18T01:33:38.856Z,99.99
2023-04-18T01:34:38.848Z,99.99
2023-04-18T01:35:38.833Z,99.99
2023-04-18T01:36:38.834Z,99.99
2023-04-18T01:37:38.809Z,99.99
2023-04-18T01:38:38.799Z,99.99
2023-04-18T01:39:38.787Z,99.99
2023-04-18T01:40:38.778Z,99.99
2023-04-18T01:41:38.766Z,99.99
2023-04-18T01:42:38.753Z,99.99
2023-04-18T01:43:38.747Z,99.99
2023-04-18T01:44:38.736Z,99.99
2023-04-18T01:45:38.732Z,99.99
2023-04-18T01:46:38.818Z,99.99
2023-04-18T01:47:38.774Z,99.99
2023-04-18T01:48:38.692Z,99.99
2023-04-18T01:49:38.679Z,99.99
2023-04-18T01:50:38.665Z,99.99
2023-04-18T01:51:38.657Z,99.99
2023-04-18T01:52:38.643Z,99.99
2023-04-18T01:53:38.643Z,99.99
2023-04-18T01:54:38.628Z,99.99
2023-04-18T01:55:38.612Z,99.99
2023-04-18T01:56:38.608Z,99.99
2023-04-18T01:57:38.595Z,99.99
2023-04-18T01:58:38.581Z,99.99
2023-04-18T01:59:38.574Z,99.99
2023-04-18T02:00:38.620Z,99.99
2023-04-18T02:01:38.584Z,99.99
2023-04-18T02:02:38.751Z,99.99
2023-04-18T02:03:38.825Z,99.99
2023-04-18T02:04:38.537Z,99.99
2023-04-18T02:05:38.543Z,99.99
2023-04-18T02:06:38.526Z,99.99
2023-04-18T02:07:38.514Z,99.99
2023-04-18T02:08:38.472Z,99.99
2023-04-18T02:09:38.482Z,99.99
2023-04-18T02:10:38.456Z,99.99
2023-04-18T02:11:38.445Z,99.99
2023-04-18T02:12:38.450Z,99.99
2023-04-18T02:13:38.427Z,99.99
2023-04-18T02:14:38.407Z,99.99
2023-04-18T02:15:38.397Z,99.99
2023-04-18T02:16:38.397Z,99.99
2023-04-18T02:17:38.418Z,99.99
2023-04-18T02:18:38.380Z,99.99
2023-04-18T02:19:38.363Z,99.99
2023-04-18T02:20:38.342Z,99.99
2023-04-18T02:21:38.331Z,99.99
2023-04-18T02:22:38.316Z,99.99
2023-04-18T02:23:38.309Z,99.99
2023-04-18T02:24:38.295Z,99.99
2023-04-18T02:25:38.289Z,99.99
2023-04-18T02:26:38.272Z,99.99
2023-04-18T02:27:38.260Z,99.99
2023-04-18T02:28:38.248Z,99.99
2023-04-18T02:29:38.253Z,99.99
2023-04-18T02:30:38.228Z,99.99
2023-04-18T02:31:38.240Z,99.99
2023-04-18T02:32:38.256Z,99.99
2023-04-18T02:33:38.197Z,99.99
2023-04-18T02:34:38.325Z,99.99
2023-04-18T02:35:38.176Z,99.99
2023-04-18T02:36:38.161Z,99.99
2023-04-18T02:37:38.151Z,99.99
2023-04-18T02:38:38.141Z,99.99
2023-04-18T02:39:38.129Z,99.99
2023-04-18T02:40:38.140Z,99.99
2023-04-18T02:41:38.109Z,99.99
2023-04-18T02:42:38.091Z,99.99
2023-04-18T02:43:38.083Z,99.99
2023-04-18T02:44:38.078Z,99.99
2023-04-18T02:45:38.099Z,99.99
2023-04-18T02:46:38.055Z,99.99
2023-04-18T02:47:47.385Z,99.99
2023-04-18T02:48:39.061Z,99.99
2023-04-18T02:49:38.029Z,99.99
2023-04-18T02:50:38.062Z,99.99
2023-04-18T02:51:38.006Z,99.99
2023-04-18T02:52:37.984Z,99.99
2023-04-18T02:53:37.970Z,99.99
2023-04-18T02:54:37.981Z,99.99
2023-04-18T02:55:37.962Z,99.99
2023-04-18T02:56:37.945Z,99.99
2023-04-18T02:57:37.927Z,99.99
2023-04-18T02:58:37.924Z,99.99
2023-04-18T02:59:37.906Z,99.99
2023-04-18T03:00:37.898Z,99.99
2023-04-18T03:01:37.962Z,99.99
2023-04-18T03:02:37.939Z,99.99
2023-04-18T03:03:37.862Z,99.99
2023-04-18T03:04:37.884Z,99.99
2023-04-18T03:05:37.840Z,99.99
2023-04-18T03:06:37.858Z,99.99
2023-04-18T03:07:37.820Z,99.99
2023-04-18T03:08:37.805Z,99.99
2023-04-18T03:09:37.798Z,99.99
2023-04-18T03:10:37.792Z,99.99
2023-04-18T03:11:37.776Z,99.99
2023-04-18T03:12:37.770Z,99.99
2023-04-18T03:13:37.763Z,99.99
2023-04-18T03:14:37.745Z,99.99
2023-04-18T03:15:37.767Z,99.99
2023-04-18T03:16:37.724Z,99.99
2023-04-18T03:17:37.736Z,99.99
2023-04-18T03:18:37.706Z,99.99
2023-04-18T03:19:37.702Z,99.99
2023-04-18T03:20:37.692Z,99.99
2023-04-18T03:21:37.673Z,99.99
2023-04-18T03:22:37.680Z,99.99
2023-04-18T03:23:37.646Z,99.99
2023-04-18T03:24:37.653Z,99.99
2023-04-18T03:25:37.623Z,99.23
2023-04-18T03:26:37.616Z,99.99
2023-04-18T03:27:37.600Z,99.99
2023-04-18T03:28:37.609Z,99.99
2023-04-18T03:29:37.582Z,99.74
2023-04-18T03:30:37.567Z,99.99
2023-04-18T03:31:37.596Z,99.99
2023-04-18T03:32:37.556Z,99.99
2023-04-18T03:33:37.531Z,99.99
2023-04-18T03:34:37.522Z,99.99
2023-04-18T03:35:37.509Z,99.99
2023-04-18T03:36:37.502Z,99.99
2023-04-18T03:37:37.488Z,99.99
2023-04-18T03:38:37.508Z,99.99
2023-04-18T03:39:37.468Z,99.99
2023-04-18T03:40:37.463Z,99.99
2023-04-18T03:41:37.446Z,99.99
2023-04-18T03:42:37.456Z,99.99
2023-04-18T03:43:37.424Z,99.99
2023-04-18T03:44:37.412Z,99.99
2023-04-18T03:45:37.399Z,99.99
2023-04-18T03:46:37.431Z,99.99
2023-04-18T03:47:37.404Z,99.99
2023-04-18T03:48:37.542Z,99.99
2023-04-18T03:49:37.362Z,99.99
2023-04-18T03:50:37.349Z,99.99
2023-04-18T03:51:37.333Z,99.99
2023-04-18T03:52:37.333Z,99.99
2023-04-18T03:53:37.309Z,99.99
2023-04-18T03:54:37.332Z,99.99
2023-04-18T03:55:37.291Z,99.99
2023-04-18T03:56:37.330Z,99.99
2023-04-18T03:57:37.278Z,99.99
2023-04-18T03:58:37.262Z,99.99
2023-04-18T03:59:37.257Z,99.99
2023-04-18T04:00:37.340Z,99.99
2023-04-18T04:01:37.298Z,99.99
2023-04-18T04:02:37.428Z,99.99
2023-04-18T04:03:37.537Z,99.99
2023-04-18T04:04:37.241Z,99.99
2023-04-18T04:05:37.199Z,99.99
2023-04-18T04:06:37.182Z,99.99
2023-04-18T04:07:37.171Z,99.99
2023-04-18T04:08:37.153Z,99.99
2023-04-18T04:09:37.145Z,99.99
2023-04-18T04:10:37.157Z,99.99
2023-04-18T04:11:37.126Z,99.99
2023-04-18T04:12:37.113Z,99.99
2023-04-18T04:13:37.107Z,99.99
2023-04-18T04:14:37.092Z,99.99
2023-04-18T04:15:37.088Z,99.99
2023-04-18T04:16:37.198Z,99.99
2023-04-18T04:17:37.079Z,99.99
2023-04-18T04:18:37.044Z,99.99
2023-04-18T04:19:37.032Z,99.99
2023-04-18T04:20:37.025Z,99.99
2023-04-18T04:21:37.010Z,99.99
2023-04-18T04:22:37.014Z,99.99
2023-04-18T04:23:36.986Z,99.99
2023-04-18T04:24:36.984Z,99.99
2023-04-18T04:25:36.975Z,99.99
2023-04-18T04:26:36.975Z,99.99
2023-04-18T04:27:37.018Z,99.99
2023-04-18T04:28:36.945Z,99.99
2023-04-18T04:29:36.922Z,99.99
2023-04-18T04:30:36.913Z,99.99
2023-04-18T04:31:37.041Z,99.99
2023-04-18T04:32:36.899Z,99.99
2023-04-18T04:33:36.881Z,99.99
2023-04-18T04:34:36.869Z,99.99
2023-04-18T04:35:36.878Z,99.99
2023-04-18T04:36:36.853Z,99.99
2023-04-18T04:37:36.831Z,99.99
2023-04-18T04:38:36.871Z,99.99
2023-04-18T04:39:36.810Z,99.99
2023-04-18T04:40:36.800Z,99.99
2023-04-18T04:41:36.786Z,99.99
2023-04-18T04:42:36.901Z,99.99
2023-04-18T04:43:36.764Z,99.99
2023-04-18T04:44:36.805Z,99.99
2023-04-18T04:45:36.790Z,99.99
2023-04-18T04:46:36.734Z,99.99
2023-04-18T04:47:36.795Z,99.99
2023-04-18T04:48:36.714Z,99.99
2023-04-18T04:49:36.728Z,99.99
2023-04-18T04:50:36.689Z,99.99
2023-04-18T04:51:36.677Z,99.99
2023-04-18T04:52:36.670Z,99.99
2023-04-18T04:53:36.649Z,99.99
2023-04-18T04:54:36.646Z,99.99
2023-04-18T04:55:36.632Z,99.99
2023-04-18T04:56:36.640Z,99.99
2023-04-18T04:57:36.613Z,99.99
2023-04-18T04:58:36.628Z,99.99
2023-04-18T04:59:36.593Z,99.99
2023-04-18T05:00:36.591Z,99.99
2023-04-18T05:01:36.665Z,99.99
2023-04-18T05:02:36.700Z,99.99
2023-04-18T05:03:36.876Z,99.99
2023-04-18T05:04:36.668Z,99.99
2023-04-18T05:05:36.533Z,99.99
2023-04-18T05:06:37.915Z,99.99
2023-04-18T05:07:36.500Z,99.99
2023-04-18T05:08:36.496Z,99.99
2023-04-18T05:09:36.503Z,99.99
2023-04-18T05:10:36.477Z,99.99
2023-04-18T05:11:36.459Z,99.99
2023-04-18T05:12:36.447Z,99.99
2023-04-18T05:13:36.433Z,99.99
2023-04-18T05:14:36.475Z,99.99
2023-04-18T05:15:36.415Z,99.99
2023-04-18T05:16:36.466Z,99.99
2023-04-18T05:17:36.444Z,99.99
2023-04-18T05:18:36.392Z,99.99
2023-04-18T05:19:36.372Z,99.99
2023-04-18T05:20:36.364Z,99.99
2023-04-18T05:21:36.346Z,99.99
2023-04-18T05:22:36.337Z,99.99
2023-04-18T05:23:36.323Z,99.99
2023-04-18T05:24:36.325Z,99.99
2023-04-18T05:25:36.302Z,99.99
2023-04-18T05:26:36.308Z,99.99
2023-04-18T05:27:36.308Z,99.99
2023-04-18T05:28:36.266Z,99.99
2023-04-18T05:29:36.259Z,99.99
2023-04-18T05:30:36.367Z,99.99
2023-04-18T05:31:36.368Z,99.99
2023-04-18T05:32:36.308Z,99.99
2023-04-18T05:33:36.222Z,99.99
2023-04-18T05:34:38.510Z,99.99
2023-04-18T05:35:36.197Z,99.99
2023-04-18T05:36:36.180Z,99.99
2023-04-18T05:37:36.173Z,99.99
2023-04-18T05:38:36.169Z,99.99
2023-04-18T05:39:36.156Z,99.99
2023-04-18T05:40:36.158Z,99.99
2023-04-18T05:41:36.129Z,99.99
2023-04-18T05:42:36.118Z,99.99
2023-04-18T05:43:36.113Z,99.99
2023-04-18T05:44:36.099Z,99.99
2023-04-18T05:45:36.100Z,99.99
2023-04-18T05:46:36.218Z,99.99
2023-04-18T05:47:36.153Z,99.99
2023-04-18T05:48:36.054Z,99.99
2023-04-18T05:49:36.047Z,99.99
2023-04-18T05:50:36.046Z,99.99
2023-04-18T05:51:36.027Z,99.99
2023-04-18T05:52:36.011Z,99.99
2023-04-18T05:53:35.995Z,99.99
2023-04-18T05:54:36.008Z,99.99
2023-04-18T05:55:35.988Z,99.99
2023-04-18T05:56:35.964Z,99.99
2023-04-18T05:57:35.952Z,99.99
2023-04-18T05:58:35.943Z,99.99
2023-04-18T05:59:35.982Z,99.99
2023-04-18T06:00:35.933Z,99.99
2023-04-18T06:01:35.909Z,99.99
2023-04-18T06:02:36.102Z,99.99
2023-04-18T06:03:36.164Z,99.99
2023-04-18T06:04:36.010Z,99.99
2023-04-18T06:05:36.080Z,99.99
2023-04-18T06:06:35.854Z,99.99
2023-04-18T06:07:35.848Z,99.99
2023-04-18T06:08:35.835Z,99.99
2023-04-18T06:09:35.823Z,99.99
2023-04-18T06:10:37.760Z,99.99
2023-04-18T06:11:35.800Z,99.99
2023-04-18T06:12:35.818Z,99.99
2023-04-18T06:13:35.780Z,99.99
2023-04-18T06:14:35.854Z,99.99
2023-04-18T06:15:35.765Z,99.99
2023-04-18T06:16:35.803Z,99.99
2023-04-18T06:17:35.803Z,99.99
2023-04-18T06:18:35.759Z,99.99
2023-04-18T06:19:35.873Z,99.99
2023-04-18T06:20:35.702Z,99.99
2023-04-18T06:21:35.686Z,99.99
2023-04-18T06:22:35.680Z,99.99
2023-04-18T06:23:35.670Z,99.99
2023-04-18T06:24:35.660Z,99.99
2023-04-18T06:25:35.655Z,99.99
2023-04-18T06:26:35.639Z,99.99
2023-04-18T06:27:35.622Z,99.99
2023-04-18T06:28:35.621Z,99.99
2023-04-18T06:29:36.221Z,99.99
2023-04-18T06:30:35.599Z,99.99
2023-04-18T06:31:35.682Z,99.99
2023-04-18T06:32:35.666Z,99.99
2023-04-18T06:33:35.555Z,99.99
2023-04-18T06:34:35.587Z,99.99
2023-04-18T06:35:35.544Z,99.99
2023-04-18T06:36:35.519Z,99.99
2023-04-18T06:37:35.512Z,99.99
2023-04-18T06:38:35.510Z,99.99
2023-04-18T06:39:35.487Z,99.99
2023-04-18T06:40:35.495Z,99.99
2023-04-18T06:41:35.465Z,99.99
2023-04-18T06:42:35.500Z,99.99
2023-04-18T06:43:35.444Z,99.99
2023-04-18T06:44:35.435Z,99.99
2023-04-18T06:45:35.581Z,99.99
2023-04-18T06:46:35.415Z,99.99
2023-04-18T06:47:35.445Z,99.99
2023-04-18T06:48:35.398Z,99.99
2023-04-18T06:49:35.387Z,99.99
2023-04-18T06:50:35.409Z,99.99
2023-04-18T06:51:35.374Z,99.99
2023-04-18T06:52:35.348Z,99.99
2023-04-18T06:53:35.373Z,99.99
2023-04-18T06:54:35.349Z,99.99
2023-04-18T06:55:35.320Z,99.99
2023-04-18T06:56:36.629Z,99.99
2023-04-18T06:57:35.298Z,99.99
2023-04-18T06:58:35.282Z,99.99
2023-04-18T06:59:35.269Z,99.99
2023-04-18T07:00:35.261Z,99.99
2023-04-18T07:01:35.373Z,99.99
2023-04-18T07:02:35.363Z,99.99
2023-04-18T07:03:35.310Z,99.99
2023-04-18T07:04:35.269Z,99.99
2023-04-18T07:05:35.213Z,99.99
2023-04-18T07:06:35.216Z,99.99
2023-04-18T07:07:35.189Z,99.99
2023-04-18T07:08:35.177Z,99.99
2023-04-18T07:09:35.171Z,99.99
2023-04-18T07:10:35.151Z,99.99
2023-04-18T07:11:35.138Z,99.99
2023-04-18T07:12:35.128Z,99.99
2023-04-18T07:13:35.118Z,99.99
2023-04-18T07:14:35.119Z,99.99
2023-04-18T07:15:35.125Z,99.99
2023-04-18T07:16:35.158Z,99.99
2023-04-18T07:17:35.116Z,99.99
2023-04-18T07:18:38.313Z,99.99
2023-04-18T07:19:35.047Z,99.99
2023-04-18T07:20:35.053Z,99.99
2023-04-18T07:21:35.040Z,99.99
2023-04-18T07:22:35.274Z,99.99
2023-04-18T07:23:35.027Z,99.99
2023-04-18T07:24:34.995Z,98.85
2023-04-18T07:25:34.993Z,99.77
2023-04-18T07:26:34.967Z,98.90
2023-04-18T07:27:34.961Z,99.99
2023-04-18T07:28:34.961Z,96.20
2023-04-18T07:29:34.936Z,95.90
2023-04-18T07:30:34.922Z,95.34
2023-04-18T07:31:34.955Z,94.38
2023-04-18T07:32:35.004Z,94.64
2023-04-18T07:33:34.894Z,93.16
2023-04-18T07:34:34.875Z,93.06
2023-04-18T07:35:34.882Z,92.55
2023-04-18T07:36:34.863Z,93.01
2023-04-18T07:37:34.856Z,92.65
2023-04-18T07:38:34.972Z,93.51
2023-04-18T07:39:34.849Z,93.02
2023-04-18T07:40:34.828Z,90.88
2023-04-18T07:41:34.803Z,90.83
2023-04-18T07:42:34.808Z,92.80
2023-04-18T07:43:34.797Z,91.78
2023-04-18T07:44:34.794Z,92.55
2023-04-18T07:45:34.804Z,92.65
2023-04-18T07:46:34.827Z,91.03
2023-04-18T07:47:34.844Z,90.68
2023-04-18T07:48:34.864Z,88.76
2023-04-18T07:49:34.846Z,87.55
2023-04-18T07:50:34.879Z,86.63
2023-04-18T07:51:34.867Z,86.22
2023-04-18T07:52:34.791Z,87.02
2023-04-18T07:53:34.702Z,88.81
2023-04-18T07:54:34.753Z,88.16
2023-04-18T07:55:34.658Z,86.98
2023-04-18T07:56:34.659Z,87.29
2023-04-18T07:57:34.644Z,87.73
2023-04-18T07:58:34.628Z,87.29
2023-04-18T07:59:34.615Z,87.29
2023-04-18T08:00:34.614Z,85.98
2023-04-18T08:01:34.594Z,84.93
2023-04-18T08:02:34.672Z,83.51
2023-04-18T08:03:34.618Z,83.14
2023-04-18T08:04:34.740Z,82.17
2023-04-18T08:05:34.750Z,83.59
2023-04-18T08:06:34.536Z,83.73
2023-04-18T08:07:34.527Z,83.65
2023-04-18T08:08:34.515Z,82.84
2023-04-18T08:09:34.505Z,80.66
2023-04-18T08:10:34.595Z,82.45
2023-04-18T08:11:34.514Z,79.51
2023-04-18T08:12:34.472Z,78.23
2023-04-18T08:13:34.462Z,79.21
2023-04-18T08:14:34.485Z,78.46
2023-04-18T08:15:34.443Z,77.95
2023-04-18T08:16:34.482Z,76.80
2023-04-18T08:17:34.449Z,76.90
2023-04-18T08:18:34.405Z,76.12
2023-04-18T08:19:34.399Z,76.32
2023-04-18T08:20:34.409Z,76.59
2023-04-18T08:21:34.375Z,73.63
2023-04-18T08:22:34.367Z,74.81
2023-04-18T08:23:34.350Z,72.24
2023-04-18T08:24:34.338Z,75.12
2023-04-18T08:25:34.329Z,74.54
2023-04-18T08:26:34.374Z,74.54
2023-04-18T08:27:34.307Z,74.00
2023-04-18T08:28:34.297Z,74.60
2023-04-18T08:29:34.308Z,72.72
2023-04-18T08:30:34.311Z,69.95
2023-04-18T08:31:34.302Z,70.66
2023-04-18T08:32:34.400Z,68.77
2023-04-18T08:33:34.248Z,69.18
2023-04-18T08:34:34.235Z,69.21
2023-04-18T08:35:34.218Z,70.86
2023-04-18T08:36:34.218Z,70.05
2023-04-18T08:37:34.198Z,70.83
2023-04-18T08:38:34.185Z,68.80
2023-04-18T08:39:34.186Z,69.14
2023-04-18T08:40:34.372Z,69.68
2023-04-18T08:41:34.164Z,69.98
2023-04-18T08:42:34.353Z,70.83
2023-04-18T08:43:34.139Z,69.85
2023-04-18T08:44:34.134Z,69.98
2023-04-18T08:45:34.179Z,70.22
2023-04-18T08:46:34.098Z,68.60
2023-04-18T08:47:34.117Z,67.93
2023-04-18T08:48:34.165Z,66.88
2023-04-18T08:49:34.072Z,67.49
2023-04-18T08:50:34.067Z,67.29
2023-04-18T08:51:34.078Z,68.33
2023-04-18T08:52:34.047Z,68.70
2023-04-18T08:53:34.032Z,68.26
2023-04-18T08:54:34.012Z,67.93
2023-04-18T08:55:34.002Z,68.67
2023-04-18T08:56:33.997Z,66.52
2023-04-18T08:57:33.988Z,65.95
2023-04-18T08:58:34.001Z,66.89
2023-04-18T08:59:33.953Z,65.25
2023-04-18T09:00:33.943Z,65.95
2023-04-18T09:01:33.960Z,65.31
2023-04-18T09:02:33.994Z,66.58
2023-04-18T09:03:33.944Z,67.29
2023-04-18T09:04:34.004Z,64.94
2023-04-18T09:05:33.888Z,66.15
2023-04-18T09:06:33.889Z,66.65
2023-04-18T09:07:33.874Z,66.65
2023-04-18T09:08:33.857Z,66.15
2023-04-18T09:09:33.851Z,66.08
2023-04-18T09:10:33.875Z,66.05
2023-04-18T09:11:33.828Z,67.93
2023-04-18T09:12:33.840Z,67.53
2023-04-18T09:13:33.822Z,65.35
2023-04-18T09:14:33.925Z,64.44
2023-04-18T09:15:33.783Z,64.75
2023-04-18T09:16:33.779Z,64.87
2023-04-18T09:17:33.785Z,64.61
2023-04-18T09:18:33.744Z,64.61
2023-04-18T09:19:33.737Z,65.05
2023-04-18T09:20:33.724Z,64.04
2023-04-18T09:21:33.748Z,64.31
2023-04-18T09:22:33.706Z,63.78
2023-04-18T09:23:33.696Z,63.21
2023-04-18T09:24:33.689Z,62.68
2023-04-18T09:25:33.673Z,61.40
2023-04-18T09:26:33.665Z,61.16
2023-04-18T09:27:33.659Z,62.60
2023-04-18T09:28:33.644Z,63.36
2023-04-18T09:29:33.639Z,64.40
2023-04-18T09:30:33.842Z,64.30
2023-04-18T09:31:33.658Z,64.51
2023-04-18T09:32:33.617Z,64.21
2023-04-18T09:33:33.588Z,62.26
2023-04-18T09:34:33.577Z,62.09
2023-04-18T09:35:33.576Z,62.12
2023-04-18T09:36:33.587Z,62.87
2023-04-18T09:37:33.549Z,61.66
2023-04-18T09:38:33.535Z,61.30
2023-04-18T09:39:33.526Z,60.33
2023-04-18T09:40:33.517Z,61.21
2023-04-18T09:41:33.515Z,59.34
2023-04-18T09:42:33.497Z,59.53
2023-04-18T09:43:33.484Z,59.94
2023-04-18T09:44:33.469Z,60.89
2023-04-18T09:45:33.462Z,60.87
2023-04-18T09:46:33.499Z,59.20
2023-04-18T09:47:33.484Z,58.60
2023-04-18T09:48:33.432Z,59.46
2023-04-18T09:49:33.419Z,60.25
2023-04-18T09:50:33.415Z,61.53
2023-04-18T09:51:33.399Z,61.17
2023-04-18T09:52:33.384Z,60.81
2023-04-18T09:53:33.378Z,59.78
2023-04-18T09:54:33.374Z,58.07
2023-04-18T09:55:33.358Z,57.50
2023-04-18T09:56:33.345Z,57.79
2023-04-18T09:57:33.340Z,58.09
2023-04-18T09:58:33.323Z,59.05
2023-04-18T09:59:33.327Z,58.01
2023-04-18T10:00:33.302Z,57.35
2023-04-18T10:01:33.296Z,56.93
2023-04-18T10:02:33.414Z,56.93
2023-04-18T10:03:33.335Z,56.81
2023-04-18T10:04:33.362Z,56.41
2023-04-18T10:05:33.277Z,56.79
2023-04-18T10:06:33.235Z,58.28
2023-04-18T10:07:33.243Z,59.56
2023-04-18T10:08:33.230Z,59.75
2023-04-18T10:09:33.201Z,61.95
2023-04-18T10:10:33.206Z,60.74
2023-04-18T10:11:33.208Z,62.55
2023-04-18T10:12:33.169Z,62.48
2023-04-18T10:13:33.164Z,60.77
2023-04-18T10:14:33.149Z,62.57
2023-04-18T10:15:33.183Z,64.16
2023-04-18T10:16:34.857Z,62.35
2023-04-18T10:17:33.134Z,62.11
2023-04-18T10:18:33.186Z,62.62
2023-04-18T10:19:33.094Z,63.32
2023-04-18T10:20:33.077Z,62.59
2023-04-18T10:21:33.073Z,63.84
2023-04-18T10:22:33.058Z,60.93
2023-04-18T10:23:33.049Z,59.91
2023-04-18T10:24:33.039Z,58.22
2023-04-18T10:25:33.029Z,57.73
2023-04-18T10:26:33.016Z,57.31
2023-04-18T10:27:33.021Z,58.00
2023-04-18T10:28:32.996Z,60.42
2023-04-18T10:29:32.985Z,60.98
2023-04-18T10:30:32.974Z,62.25
2023-04-18T10:31:32.988Z,62.88
2023-04-18T10:32:33.032Z,63.93
2023-04-18T10:33:33.487Z,64.64
2023-04-18T10:34:33.014Z,64.64
2023-04-18T10:35:32.919Z,65.61
2023-04-18T10:36:32.907Z,66.95
2023-04-18T10:37:32.915Z,67.66
2023-04-18T10:38:32.895Z,67.05
2023-04-18T10:39:32.884Z,67.18
2023-04-18T10:40:32.895Z,68.10
2023-04-18T10:41:32.879Z,68.26
2023-04-18T10:42:32.855Z,68.87
2023-04-18T10:43:32.836Z,67.69
2023-04-18T10:44:32.842Z,66.25
2023-04-18T10:45:32.814Z,64.11
2023-04-18T10:46:33.111Z,65.42
2023-04-18T10:47:32.918Z,65.35
2023-04-18T10:48:32.789Z,65.35
2023-04-18T10:49:33.062Z,65.18
2023-04-18T10:50:32.914Z,67.02
2023-04-18T10:51:32.751Z,66.36
2023-04-18T10:52:32.740Z,64.41
2023-04-18T10:53:32.730Z,64.51
2023-04-18T10:54:32.720Z,64.31
2023-04-18T10:55:32.708Z,64.95
2023-04-18T10:56:32.692Z,64.84
2023-04-18T10:57:32.688Z,64.64
2023-04-18T10:58:32.673Z,66.02
2023-04-18T10:59:32.667Z,65.47
2023-04-18T11:00:32.741Z,67.12
2023-04-18T11:01:33.162Z,67.43
2023-04-18T11:02:32.748Z,67.12
2023-04-18T11:03:32.656Z,68.06
2023-04-18T11:04:32.644Z,67.93
2023-04-18T11:05:32.603Z,68.06
2023-04-18T11:06:32.693Z,68.16
2023-04-18T11:07:32.579Z,68.30
2023-04-18T11:08:32.565Z,68.97
2023-04-18T11:09:32.559Z,69.95
2023-04-18T11:10:32.553Z,69.71
2023-04-18T11:11:32.545Z,68.67
2023-04-18T11:12:32.532Z,68.43
2023-04-18T11:13:32.512Z,67.73
2023-04-18T11:14:32.501Z,69.28
2023-04-18T11:15:32.491Z,67.86
2023-04-18T11:16:32.499Z,67.06
2023-04-18T11:17:32.516Z,68.54
2023-04-18T11:18:32.459Z,69.24
2023-04-18T11:19:32.446Z,69.42
2023-04-18T11:20:32.441Z,69.21
2023-04-18T11:21:32.426Z,69.04
2023-04-18T11:22:32.486Z,68.84
2023-04-18T11:23:32.405Z,69.41
2023-04-18T11:24:32.392Z,70.56
2023-04-18T11:25:32.392Z,71.44
2023-04-18T11:26:32.374Z,70.79
2023-04-18T11:27:32.357Z,71.33
2023-04-18T11:28:32.350Z,71.23
2023-04-18T11:29:32.345Z,72.01
2023-04-18T11:30:32.336Z,70.89
2023-04-18T11:31:32.336Z,70.73
2023-04-18T11:32:32.383Z,71.06
2023-04-18T11:33:32.296Z,71.94
2023-04-18T11:34:32.290Z,71.47
2023-04-18T11:35:32.277Z,72.21
2023-04-18T11:36:32.266Z,72.31
2023-04-18T11:37:32.258Z,73.76
2023-04-18T11:38:32.292Z,74.64
2023-04-18T11:39:32.230Z,74.40
2023-04-18T11:40:32.219Z,71.77
2023-04-18T11:41:32.210Z,72.96
2023-04-18T11:42:32.197Z,75.15
2023-04-18T11:43:32.185Z,75.04
2023-04-18T11:44:33.707Z,73.93
2023-04-18T11:45:32.161Z,74.30
2023-04-18T11:46:32.371Z,73.43
2023-04-18T11:47:32.216Z,72.85
2023-04-18T11:48:32.129Z,74.37
2023-04-18T11:49:32.164Z,75.08
2023-04-18T11:50:32.108Z,74.48
2023-04-18T11:51:32.165Z,74.51
2023-04-18T11:52:32.092Z,75.62
2023-04-18T11:53:32.077Z,75.62
2023-04-18T11:54:32.139Z,76.33
2023-04-18T11:55:32.049Z,75.62
2023-04-18T11:56:33.423Z,74.98
2023-04-18T11:57:32.040Z,75.38
2023-04-18T11:58:32.039Z,74.84
2023-04-18T11:59:32.005Z,73.63
2023-04-18T12:00:31.998Z,75.04
2023-04-18T12:01:31.984Z,74.20
2023-04-18T12:02:32.069Z,74.71
2023-04-18T12:03:32.178Z,73.93
2023-04-18T12:04:32.139Z,74.74
2023-04-18T12:05:32.119Z,74.44
2023-04-18T12:06:32.171Z,74.33
2023-04-18T12:07:31.956Z,73.22
2023-04-18T12:08:31.910Z,73.25
2023-04-18T12:09:31.897Z,74.13
2023-04-18T12:10:31.957Z,73.93
2023-04-18T12:11:31.915Z,72.41
2023-04-18T12:12:31.867Z,72.61
2023-04-18T12:13:31.870Z,72.72
2023-04-18T12:14:31.840Z,72.96
2023-04-18T12:15:31.844Z,74.77
2023-04-18T12:16:31.839Z,74.68
2023-04-18T12:17:31.839Z,75.01
2023-04-18T12:18:31.800Z,75.82
2023-04-18T12:19:31.789Z,74.61
2023-04-18T12:20:31.792Z,74.91
2023-04-18T12:21:31.767Z,74.77
2023-04-18T12:22:31.758Z,75.04
2023-04-18T12:23:31.750Z,74.54
2023-04-18T12:24:31.733Z,76.06
2023-04-18T12:25:31.723Z,74.40
2023-04-18T12:26:31.787Z,74.04
2023-04-18T12:27:31.700Z,74.33
2023-04-18T12:28:31.684Z,74.04
2023-04-18T12:29:31.679Z,73.36
2023-04-18T12:30:31.674Z,72.96
2023-04-18T12:31:31.689Z,72.92
2023-04-18T12:32:31.666Z,72.88
2023-04-18T12:33:31.629Z,72.72
2023-04-18T12:34:31.621Z,72.28
2023-04-18T12:35:31.612Z,71.40
2023-04-18T12:36:31.599Z,72.75
2023-04-18T12:37:31.588Z,72.01
2023-04-18T12:38:31.575Z,71.57
2023-04-18T12:39:31.568Z,71.06
2023-04-18T12:40:31.566Z,71.16
2023-04-18T12:41:31.560Z,70.65
2023-04-18T12:42:31.564Z,70.52
2023-04-18T12:43:31.520Z,70.45
2023-04-18T12:44:31.512Z,70.79
2023-04-18T12:45:31.504Z,70.79
2023-04-18T12:46:31.558Z,70.79
2023-04-18T12:47:31.487Z,70.08
2023-04-18T12:48:31.468Z,70.08
2023-04-18T12:49:31.456Z,70.65
2023-04-18T12:50:31.446Z,71.26
2023-04-18T12:51:31.442Z,69.41
2023-04-18T12:52:31.422Z,70.59